Time;durP1;ratioP1;P1;durP2;ratioP2;P2;SDS_P1;SDS_P2;PMS_P1;PMS_P2;Temp;Humidity;BMP_temperature;BMP_pressure;BME280_temperature;BME280_humidity;BME280_pressure;Samples;Min_cycle;Max_cycle;Signal;HPM_P1;HPM_P2
2022/06/29 00:01:54;;;;;;;0.43;0.40;;;;;;;21.18;72.63;101240.78;5083956;28;20065;-61
2022/06/29 00:04:19;;;;;;;0.00;0.00;;;;;;;21.23;72.91;101240.34;5075494;28;20131;-62
2022/06/29 00:06:45;;;;;;;0.13;0.10;;;;;;;21.18;72.33;101237.28;5078074;28;20027;-59
2022/06/29 00:09:10;;;;;;;0.10;0.10;;;;;;;21.15;72.52;101233.41;5087872;28;20060;-62
2022/06/29 00:11:37;;;;;;;0.10;0.10;;;;;;;21.12;73.02;101236.97;5087599;28;20392;-62
2022/06/29 00:14:03;;;;;;;0.00;0.00;;;;;;;21.10;72.86;101231.13;5085123;28;20509;-62
2022/06/29 00:16:28;;;;;;;0.28;0.20;;;;;;;21.10;72.58;101236.59;5090669;28;20051;-63
2022/06/29 00:18:54;;;;;;;0.22;0.13;;;;;;;20.97;73.35;101243.00;5082961;28;20052;-62
2022/06/29 00:21:19;;;;;;;0.00;0.00;;;;;;;20.94;74.07;101230.16;5086553;28;20408;-62
2022/06/29 00:23:45;;;;;;;0.80;0.32;;;;;;;20.94;73.90;101241.09;5089367;28;20070;-61
2022/06/29 00:26:11;;;;;;;0.10;0.10;;;;;;;20.88;74.21;101240.78;5083890;28;20036;-62
2022/06/29 00:28:36;;;;;;;0.35;0.35;;;;;;;20.79;74.34;101231.50;5092226;28;20426;-62
2022/06/29 00:31:02;;;;;;;0.20;0.20;;;;;;;20.75;74.70;101234.28;5087545;28;20131;-62
2022/06/29 00:33:28;;;;;;;0.63;0.22;;;;;;;20.84;74.22;101240.03;5091302;28;20028;-63
2022/06/29 00:35:53;;;;;;;0.40;0.20;;;;;;;20.85;73.80;101238.09;5086832;28;20028;-61
2022/06/29 00:38:19;;;;;;;0.10;0.10;;;;;;;20.81;73.06;101229.13;5092615;28;20036;-63
2022/06/29 00:40:44;;;;;;;0.08;0.08;;;;;;;20.70;73.07;101229.25;5091689;28;20040;-62
2022/06/29 00:43:10;;;;;;;0.20;0.10;;;;;;;20.56;73.84;101235.66;5088716;28;20108;-63
2022/06/29 00:45:36;;;;;;;0.10;0.10;;;;;;;20.52;74.56;101234.94;5089005;28;20058;-61
2022/06/29 00:48:02;;;;;;;0.05;0.00;;;;;;;20.53;74.51;101239.25;5090678;28;20043;-63
2022/06/29 00:50:30;;;;;;;0.17;0.10;;;;;;;20.57;74.38;101230.97;5073824;28;20036;-63
2022/06/29 00:53:02;;;;;;;0.40;0.22;;;;;;;20.55;73.70;101222.41;5089595;28;20032;-63
2022/06/29 00:55:28;;;;;;;;;;;;;;;20.52;74.43;101215.00;5082060;28;20082;-62
2022/06/29 00:57:57;;;;;;;0.00;0.00;;;;;;;20.46;74.22;101208.44;5089589;28;19912;-62
2022/06/29 01:00:22;;;;;;;0.20;0.20;;;;;;;20.57;73.14;101207.13;5085511;28;20040;-62
2022/06/29 01:02:48;;;;;;;0.10;0.10;;;;;;;20.55;72.96;101203.25;5085222;28;20034;-57
2022/06/29 01:05:14;;;;;;;0.10;0.10;;;;;;;20.57;73.84;101203.59;5082248;28;20484;-60
2022/06/29 01:07:40;;;;;;;0.28;0.22;;;;;;;20.53;73.44;101209.13;5071011;28;20035;-60
2022/06/29 01:10:06;;;;;;;0.20;0.17;;;;;;;20.49;73.35;101202.13;5086653;28;20027;-58
2022/06/29 01:12:31;;;;;;;0.32;0.20;;;;;;;20.43;73.36;101201.81;5086207;28;20032;-59
2022/06/29 01:14:57;;;;;;;0.10;0.10;;;;;;;20.39;73.48;101197.53;5081300;28;20492;-56
2022/06/29 01:17:23;;;;;;;0.20;0.20;;;;;;;20.35;73.41;101200.31;5074210;28;20645;-60
2022/06/29 01:19:50;;;;;;;0.40;0.30;;;;;;;20.38;73.66;101204.22;5081671;28;20028;-58
2022/06/29 01:22:21;;;;;;;0.10;0.10;;;;;;;20.38;73.94;101204.97;5088083;28;20019;-58
2022/06/29 01:24:47;;;;;;;0.25;0.10;;;;;;;20.37;73.80;101199.91;5072696;28;20080;-59
2022/06/29 01:27:15;;;;;;;0.20;0.10;;;;;;;20.12;75.21;101208.34;5078626;28;20043;-59
2022/06/29 01:29:41;;;;;;;0.05;0.00;;;;;;;20.17;74.65;101196.22;5078254;28;20032;-57
2022/06/29 01:32:07;;;;;;;0.22;0.13;;;;;;;20.17;75.03;101190.75;5084169;28;20032;-61
2022/06/29 01:34:34;;;;;;;0.43;0.43;;;;;;;20.11;75.52;101184.16;5078048;28;20032;-60
2022/06/29 01:37:01;;;;;;;0.10;0.10;;;;;;;20.07;75.67;101183.41;5083393;28;20040;-57
2022/06/29 01:39:28;;;;;;;0.10;0.10;;;;;;;19.86;75.69;101183.63;5079122;28;20024;-62
2022/06/29 01:41:54;;;;;;;0.00;0.00;;;;;;;19.96;75.50;101185.44;5084527;28;20086;-59
2022/06/29 01:44:19;;;;;;;0.15;0.15;;;;;;;19.98;74.75;101192.06;5082619;28;20028;-59
2022/06/29 01:46:45;;;;;;;0.22;0.22;;;;;;;19.91;75.34;101188.63;5074929;28;20036;-61
2022/06/29 01:49:11;;;;;;;0.65;0.20;;;;;;;19.79;76.08;101185.22;5087242;28;20062;-61
2022/06/29 01:51:37;;;;;;;0.40;0.25;;;;;;;19.79;76.51;101179.75;5067819;28;20077;-60
2022/06/29 01:54:02;;;;;;;0.25;0.17;;;;;;;19.82;76.09;101174.66;5082688;28;20074;-59
2022/06/29 01:56:28;;;;;;;0.10;0.10;;;;;;;19.77;76.66;101184.06;5056240;28;20028;-61
2022/06/29 01:58:53;;;;;;;0.30;0.30;;;;;;;19.71;76.87;101169.28;5089896;28;20052;-57
2022/06/29 02:01:19;;;;;;;0.00;0.00;;;;;;;19.68;76.11;101178.28;5085433;28;20056;-58
2022/06/29 02:03:45;;;;;;;0.00;0.00;;;;;;;19.59;77.14;101173.28;5083987;28;20035;-58
2022/06/29 02:06:11;;;;;;;0.10;0.10;;;;;;;19.62;76.63;101177.16;5078009;28;20615;-57
2022/06/29 02:08:36;;;;;;;0.10;0.10;;;;;;;19.63;76.94;101170.50;5086610;28;20492;-58
2022/06/29 02:11:03;;;;;;;0.10;0.10;;;;;;;19.50;77.24;101164.00;5091086;28;20130;-60
2022/06/29 02:13:28;;;;;;;0.08;0.05;;;;;;;19.31;77.69;101162.56;5086471;28;20031;-56
2022/06/29 02:15:54;;;;;;;0.30;0.13;;;;;;;19.43;77.87;101162.09;5082866;28;20081;-56
2022/06/29 02:18:20;;;;;;;0.20;0.15;;;;;;;19.41;77.47;101156.28;5079111;28;20056;-60
2022/06/29 02:20:46;;;;;;;0.17;0.17;;;;;;;19.52;77.11;101156.94;5090038;28;20483;-60
2022/06/29 02:23:11;;;;;;;0.00;0.00;;;;;;;19.51;77.17;101158.13;5079763;28;20203;-55
2022/06/29 02:25:37;;;;;;;0.22;0.10;;;;;;;19.24;77.79;101159.84;5085699;28;20455;-61
2022/06/29 02:28:03;;;;;;;0.00;0.00;;;;;;;19.23;78.40;101149.34;5089459;28;20107;-57
2022/06/29 02:35:56;;;;;;;0.38;0.20;;;;;;;19.25;77.05;101138.78;5073297;28;20040;-59
2022/06/29 02:38:22;;;;;;;0.10;0.10;;;;;;;19.33;77.49;101145.78;5081211;28;20027;-61
2022/06/29 02:40:48;;;;;;;0.20;0.20;;;;;;;19.31;77.52;101137.19;5089769;28;20032;-57
2022/06/29 02:43:14;;;;;;;0.30;0.10;;;;;;;19.26;77.87;101143.09;5089609;28;20404;-59
2022/06/29 02:45:39;;;;;;;0.50;0.40;;;;;;;19.28;77.84;101140.72;5089976;28;20112;-59
2022/06/29 02:48:05;;;;;;;0.15;0.13;;;;;;;19.36;77.63;101134.03;5088499;28;20031;-61
2022/06/29 02:50:30;;;;;;;0.10;0.10;;;;;;;19.27;77.32;101139.16;5089111;28;20457;-59
2022/06/29 02:52:56;;;;;;;0.30;0.30;;;;;;;19.29;77.21;101142.28;5090431;28;20039;-63
2022/06/29 02:55:21;;;;;;;0.00;0.00;;;;;;;19.32;77.18;101131.34;5088860;28;20032;-60
2022/06/29 02:57:47;;;;;;;0.10;0.05;;;;;;;19.37;76.70;101135.59;5078051;28;20600;-63
2022/06/29 03:00:14;;;;;;;0.55;0.13;;;;;;;19.28;76.94;101144.22;5087791;28;20032;-60
2022/06/29 03:02:39;;;;;;;0.30;0.30;;;;;;;19.13;77.73;101134.56;5088176;28;20028;-62
2022/06/29 03:05:05;;;;;;;0.00;0.00;;;;;;;19.14;77.69;101136.16;5087407;28;20039;-62
2022/06/29 03:07:31;;;;;;;0.15;0.15;;;;;;;19.17;78.27;101121.66;5086858;28;20058;-62
2022/06/29 03:09:57;;;;;;;0.00;0.00;;;;;;;19.24;77.73;101127.06;5068301;28;20036;-62
2022/06/29 03:12:22;;;;;;;1.17;0.38;;;;;;;19.29;77.88;101128.63;5088450;28;20043;-62
2022/06/29 03:14:48;;;;;;;0.10;0.10;;;;;;;19.21;77.52;101127.88;5059399;28;20037;-63
2022/06/29 03:17:13;;;;;;;0.55;0.47;;;;;;;19.25;77.49;101130.59;5087118;28;20057;-62
2022/06/29 03:19:39;;;;;;;0.00;0.00;;;;;;;18.92;78.93;101124.56;5069840;28;20031;-62
2022/06/29 03:22:04;;;;;;;0.05;0.00;;;;;;;19.13;78.40;101128.31;5088779;28;20032;-62
2022/06/29 03:24:30;;;;;;;0.17;0.15;;;;;;;19.17;78.21;101131.81;5086098;28;20047;-63
2022/06/29 03:26:56;;;;;;;0.10;0.10;;;;;;;19.06;77.50;101131.91;5081922;28;20031;-63
2022/06/29 03:29:21;;;;;;;0.00;0.00;;;;;;;19.09;77.25;101127.56;5082661;28;20673;-63
2022/06/29 03:31:47;;;;;;;0.65;0.65;;;;;;;19.15;77.39;101132.22;5077290;28;20040;-62
2022/06/29 03:34:12;;;;;;;0.08;0.05;;;;;;;19.27;77.31;101134.47;5084666;28;20039;-62
2022/06/29 03:36:38;;;;;;;0.15;0.15;;;;;;;19.31;76.91;101135.22;5091234;28;20449;-61
2022/06/29 03:39:04;;;;;;;0.25;0.20;;;;;;;19.42;76.42;101130.47;5089699;28;20566;-63
2022/06/29 03:41:30;;;;;;;0.10;0.10;;;;;;;19.24;77.21;101126.31;5092226;28;20120;-62
2022/06/29 03:43:55;;;;;;;0.00;0.00;;;;;;;19.35;77.24;101125.09;5090461;28;20439;-63
2022/06/29 03:46:21;;;;;;;0.10;0.10;;;;;;;19.42;76.40;101119.56;5088341;28;20085;-62
2022/06/29 03:48:47;;;;;;;0.43;0.43;;;;;;;19.37;76.28;101117.25;5066970;28;20081;-62
2022/06/29 03:51:12;;;;;;;0.00;0.00;;;;;;;19.42;76.51;101119.56;5087991;28;20043;-60
2022/06/29 03:53:38;;;;;;;0.10;0.10;;;;;;;19.51;76.37;101124.56;5089156;28;20074;-60
2022/06/29 03:56:03;;;;;;;1.33;0.90;;;;;;;19.57;75.80;101120.19;5085092;28;20484;-58
2022/06/29 03:58:29;;;;;;;0.00;0.00;;;;;;;19.50;75.91;101131.97;5093477;28;20610;-59
2022/06/29 04:00:54;;;;;;;0.08;0.08;;;;;;;19.48;76.17;101120.69;5090647;28;20028;-58
2022/06/29 04:03:20;;;;;;;0.00;0.00;;;;;;;19.61;75.92;101124.47;5086864;28;20044;-60
2022/06/29 04:05:46;;;;;;;0.10;0.10;;;;;;;19.55;76.83;101117.88;5079565;28;20062;-61
2022/06/29 04:08:11;;;;;;;0.00;0.00;;;;;;;19.53;76.17;101124.94;5050282;28;20449;-55
2022/06/29 04:10:37;;;;;;;0.00;0.00;;;;;;;19.63;76.14;101113.13;5086323;28;20593;-59
2022/06/29 04:13:02;;;;;;;0.20;0.20;;;;;;;19.62;76.26;101117.81;5087927;28;20042;-60
2022/06/29 04:15:28;;;;;;;0.00;0.00;;;;;;;19.73;76.36;101126.69;5090534;28;20073;-60
2022/06/29 04:17:53;;;;;;;0.00;0.00;;;;;;;19.72;76.28;101121.63;5092650;28;20396;-61
2022/06/29 04:23:03;;;;;;;0.00;0.00;;;;;;;19.84;74.87;101109.41;5077001;28;20048;-56
2022/06/29 04:25:29;;;;;;;0.00;0.00;;;;;;;19.76;74.39;101120.41;5090204;28;20026;-56
2022/06/29 04:27:55;;;;;;;0.00;0.00;;;;;;;19.69;75.06;101116.97;5075982;28;20128;-58
2022/06/29 04:30:21;;;;;;;0.03;0.03;;;;;;;19.79;75.85;101127.81;5084221;28;20150;-55
2022/06/29 04:32:47;;;;;;;0.03;0.03;;;;;;;19.96;74.80;101115.13;5087308;28;20115;-59
2022/06/29 04:35:12;;;;;;;0.00;0.00;;;;;;;19.76;75.14;101106.75;5079709;28;20029;-57
2022/06/29 04:37:38;;;;;;;0.00;0.00;;;;;;;19.95;74.31;101107.34;5090828;28;20451;-61
2022/06/29 04:40:04;;;;;;;0.00;0.00;;;;;;;19.98;74.54;101101.03;5089681;28;20100;-58
2022/06/29 04:42:30;;;;;;;0.10;0.10;;;;;;;19.91;74.81;101112.06;5092519;28;20032;-56
2022/06/29 04:44:55;;;;;;;0.10;0.10;;;;;;;20.07;74.22;101115.03;5070095;28;20036;-58
2022/06/29 04:47:21;;;;;;;0.10;0.10;;;;;;;20.14;73.50;101113.00;5088279;28;20118;-61
2022/06/29 04:49:47;;;;;;;0.00;0.00;;;;;;;20.18;73.50;101113.75;5073075;28;20048;-59
2022/06/29 04:52:12;;;;;;;0.10;0.10;;;;;;;20.25;73.61;101121.09;5089889;28;20032;-57
2022/06/29 04:54:39;;;;;;;0.00;0.00;;;;;;;20.29;73.33;101122.59;5090606;28;20058;-59
2022/06/29 04:57:06;;;;;;;0.00;0.00;;;;;;;20.34;72.95;101115.91;5081694;28;20032;-59
2022/06/29 04:59:33;;;;;;;0.32;0.10;;;;;;;20.23;72.57;101117.97;5089169;28;20488;-60
2022/06/29 05:01:58;;;;;;;0.15;0.15;;;;;;;20.26;72.66;101117.19;5089322;28;20036;-58
2022/06/29 05:04:24;;;;;;;0.03;0.03;;;;;;;20.35;72.68;101123.72;5089733;28;20047;-60
2022/06/29 05:06:50;;;;;;;0.10;0.10;;;;;;;20.50;72.34;101118.81;5091084;28;20020;-59
2022/06/29 05:09:15;;;;;;;0.00;0.00;;;;;;;20.42;71.82;101125.59;5070109;28;20034;-63
2022/06/29 05:11:41;;;;;;;0.10;0.10;;;;;;;20.56;71.53;101128.13;5089995;28;20440;-61
2022/06/29 05:14:09;;;;;;;0.00;0.00;;;;;;;20.74;70.74;101125.94;5089181;28;20306;-61
2022/06/29 05:16:35;;;;;;;0.00;0.00;;;;;;;21.06;70.03;101126.28;5081802;28;20408;-59
2022/06/29 05:19:01;;;;;;;0.03;0.03;;;;;;;21.72;66.70;101131.84;5084085;28;20028;-60
2022/06/29 05:21:27;;;;;;;0.00;0.00;;;;;;;22.34;63.25;101131.09;5090053;28;20032;-60
2022/06/29 05:23:52;;;;;;;0.10;0.10;;;;;;;23.00;60.65;101128.13;5086932;28;20035;-61
2022/06/29 05:26:18;;;;;;;0.08;0.08;;;;;;;23.42;58.46;101124.41;5089598;28;20035;-59
2022/06/29 05:28:44;;;;;;;0.00;0.00;;;;;;;23.54;57.07;101129.19;5088306;28;20399;-60
2022/06/29 05:31:10;;;;;;;0.10;0.05;;;;;;;23.79;56.36;101126.56;5084484;28;20036;-60
2022/06/29 05:33:55;;;;;;;0.00;0.00;;;;;;;24.03;55.23;101122.44;5069401;28;20032;-63
2022/06/29 05:36:21;;;;;;;0.00;0.00;;;;;;;24.37;53.42;101130.09;4977655;28;20824;-61
2022/06/29 05:38:47;;;;;;;0.03;0.03;;;;;;;24.66;52.99;101130.81;4978381;28;20069;-58
2022/06/29 05:41:13;;;;;;;0.00;0.00;;;;;;;25.04;52.86;101126.16;4976274;28;20061;-61
2022/06/29 05:43:39;;;;;;;0.20;0.20;;;;;;;25.45;51.50;101130.75;4976300;28;20034;-62
2022/06/29 05:46:04;;;;;;;0.28;0.28;;;;;;;25.60;50.66;101144.84;4981285;28;20499;-60
2022/06/29 05:48:30;;;;;;;0.05;0.05;;;;;;;25.70;49.81;101135.44;4979674;28;20570;-58
2022/06/29 05:50:56;;;;;;;0.00;0.00;;;;;;;25.91;50.02;101135.47;4971641;28;20050;-60
2022/06/29 05:53:22;;;;;;;0.10;0.10;;;;;;;25.98;49.79;101130.91;4972988;28;20061;-61
2022/06/29 05:55:47;;;;;;;0.00;0.00;;;;;;;26.15;50.13;101141.34;4974049;28;20125;-60
2022/06/29 05:58:18;;;;;;;0.15;0.15;;;;;;;26.18;48.64;101148.75;4989224;28;20186;-61
2022/06/29 06:00:43;;;;;;;0.00;0.00;;;;;;;26.22;49.00;101137.56;4975510;28;20055;-61
2022/06/29 06:03:09;;;;;;;0.05;0.05;;;;;;;26.16;49.58;101133.81;4977918;28;20085;-62
2022/06/29 06:05:34;;;;;;;0.00;0.00;;;;;;;25.93;49.25;101137.78;4977649;28;20043;-60
2022/06/29 06:08:00;;;;;;;0.00;0.00;;;;;;;26.17;49.21;101132.63;4972965;28;20145;-61
2022/06/29 06:10:25;;;;;;;0.00;0.00;;;;;;;26.34;49.32;101137.50;4982469;28;20061;-60
2022/06/29 06:12:52;;;;;;;0.00;0.00;;;;;;;26.38;49.19;101137.38;5007617;28;20078;-63
2022/06/29 06:15:17;;;;;;;0.00;0.00;;;;;;;26.49;49.55;101134.97;5079301;28;20085;-64
2022/06/29 06:17:43;;;;;;;0.08;0.00;;;;;;;26.61;49.31;101143.19;5081869;28;20475;-62
2022/06/29 06:20:09;;;;;;;0.10;0.10;;;;;;;26.61;48.60;101137.66;5081192;28;20040;-62
2022/06/29 06:22:35;;;;;;;0.03;0.03;;;;;;;26.63;49.89;101135.22;5079578;28;20107;-63
2022/06/29 06:25:00;;;;;;;0.00;0.00;;;;;;;26.54;48.91;101131.59;5056825;28;20111;-61
2022/06/29 06:27:25;;;;;;;0.00;0.00;;;;;;;26.35;49.15;101127.97;5080224;28;20046;-62
2022/06/29 06:29:51;;;;;;;0.00;0.00;;;;;;;26.18;50.28;101132.16;5081443;28;20027;-61
2022/06/29 06:32:16;;;;;;;0.00;0.00;;;;;;;25.93;51.32;101129.50;5077585;28;20112;-62
2022/06/29 06:34:42;;;;;;;0.00;0.00;;;;;;;26.11;51.19;101129.66;5083577;28;20020;-64
2022/06/29 06:37:08;;;;;;;0.00;0.00;;;;;;;26.19;50.73;101128.16;5064373;28;20054;-63
2022/06/29 06:39:33;;;;;;;0.00;0.00;;;;;;;26.21;51.46;101125.72;5079474;28;20052;-63
2022/06/29 06:41:59;;;;;;;0.10;0.10;;;;;;;26.23;51.20;101128.06;5081694;28;20055;-62
2022/06/29 06:44:24;;;;;;;0.20;0.20;;;;;;;26.20;50.72;101115.91;5057029;28;20035;-63
2022/06/29 06:46:50;;;;;;;0.00;0.00;;;;;;;26.26;50.68;101116.88;5081966;28;20039;-58
2022/06/29 06:49:16;;;;;;;0.08;0.08;;;;;;;26.27;51.39;101117.63;5078175;28;20028;-60
2022/06/29 06:51:42;;;;;;;0.00;0.00;;;;;;;26.37;51.11;101111.72;5045066;28;20450;-62
2022/06/29 06:54:07;;;;;;;0.00;0.00;;;;;;;26.51;51.52;101111.19;5079525;28;20043;-63
2022/06/29 06:56:33;;;;;;;0.00;0.00;;;;;;;26.34;51.99;101120.91;5073989;28;21002;-63
2022/06/29 06:58:58;;;;;;;0.00;0.00;;;;;;;26.51;52.25;101113.94;5081073;28;20085;-60
2022/06/29 07:01:24;;;;;;;0.10;0.10;;;;;;;26.55;52.58;101122.09;5065059;28;20048;-63
2022/06/29 07:03:50;;;;;;;0.00;0.00;;;;;;;26.67;51.60;101127.53;5071104;28;20090;-62
2022/06/29 07:06:15;;;;;;;0.05;0.05;;;;;;;26.48;51.93;101125.91;5076328;28;20046;-63
2022/06/29 07:08:41;;;;;;;0.00;0.00;;;;;;;26.60;52.11;101105.69;5067965;28;20032;-63
2022/06/29 07:11:08;;;;;;;0.00;0.00;;;;;;;26.77;52.04;101107.03;5082544;28;20063;-60
2022/06/29 07:13:34;;;;;;;0.35;0.10;;;;;;;26.68;51.92;101108.94;5086807;28;20446;-63
2022/06/29 07:16:03;;;;;;;0.10;0.10;;;;;;;26.64;52.02;101095.28;5085468;28;20050;-61
2022/06/29 07:18:29;;;;;;;0.00;0.00;;;;;;;26.61;52.40;101093.44;5068877;28;20055;-62
2022/06/29 07:20:55;;;;;;;0.77;0.40;;;;;;;26.54;52.33;101098.44;5066971;28;20032;-59
2022/06/29 07:23:20;;;;;;;0.10;0.10;;;;;;;26.49;52.99;101097.06;5085301;28;20085;-60
2022/06/29 07:25:46;;;;;;;0.10;0.10;;;;;;;26.63;52.85;101093.75;5083989;28;20031;-62
2022/06/29 07:28:12;;;;;;;0.00;0.00;;;;;;;26.52;52.82;101093.38;5089080;28;20042;-64
2022/06/29 07:30:37;;;;;;;0.20;0.20;;;;;;;26.64;52.90;101081.44;5086377;28;20032;-59
2022/06/29 07:33:03;;;;;;;0.00;0.00;;;;;;;26.83;52.42;101084.31;5065124;28;20497;-61
2022/06/29 07:35:29;;;;;;;0.15;0.15;;;;;;;27.14;52.11;101080.25;5081433;28;20027;-62
2022/06/29 07:37:54;;;;;;;0.00;0.00;;;;;;;27.36;51.90;101089.25;5084661;28;20035;-61
2022/06/29 07:40:20;;;;;;;0.10;0.10;;;;;;;27.50;51.44;101083.13;5080641;28;20020;-62
2022/06/29 07:42:46;;;;;;;0.10;0.00;;;;;;;27.53;50.33;101095.25;5081784;28;20036;-61
2022/06/29 07:45:32;;;;;;;0.00;0.00;;;;;;;27.12;52.20;101090.25;5079325;28;20084;-62
2022/06/29 07:47:58;;;;;;;0.43;0.28;;;;;;;27.45;51.59;101088.47;5001942;28;20133;-61
2022/06/29 07:50:23;;;;;;;0.00;0.00;;;;;;;27.71;51.82;101083.41;4998812;28;20054;-61
2022/06/29 07:52:49;;;;;;;0.10;0.08;;;;;;;27.83;50.66;101085.25;4998865;28;20057;-61
2022/06/29 07:55:15;;;;;;;0.17;0.10;;;;;;;28.00;51.41;101095.59;4992585;28;20049;-59
2022/06/29 07:57:40;;;;;;;0.20;0.20;;;;;;;28.08;50.57;101088.50;4984261;28;20034;-62
2022/06/29 08:00:07;;;;;;;0.00;0.00;;;;;;;28.10;50.15;101099.13;5006659;28;20038;-61
2022/06/29 08:02:38;;;;;;;0.00;0.00;;;;;;;27.79;50.05;101085.44;4992497;28;20043;-61
2022/06/29 08:05:04;;;;;;;0.00;0.00;;;;;;;27.75;50.15;101082.03;4992066;28;20113;-61
2022/06/29 08:07:30;;;;;;;0.10;0.10;;;;;;;27.95;51.82;101084.38;4980832;28;20109;-63
2022/06/29 08:09:55;;;;;;;0.00;0.00;;;;;;;28.21;50.77;101083.53;4992437;28;20542;-62
2022/06/29 08:12:21;;;;;;;0.20;0.20;;;;;;;28.47;50.32;101093.00;5001337;28;20042;-60
2022/06/29 08:14:47;;;;;;;0.00;0.00;;;;;;;28.65;49.92;101081.13;4995658;28;20034;-60
2022/06/29 08:17:12;;;;;;;0.00;0.00;;;;;;;28.82;50.41;101087.06;5001064;28;20122;-62
2022/06/29 08:19:38;;;;;;;0.22;0.10;;;;;;;28.92;49.25;101085.78;5000361;28;20080;-62
2022/06/29 08:22:03;;;;;;;0.00;0.00;;;;;;;29.03;48.12;101088.81;5002571;28;20058;-64
2022/06/29 08:24:29;;;;;;;0.00;0.00;;;;;;;29.15;48.67;101087.84;5028022;28;20549;-62
2022/06/29 08:26:54;;;;;;;0.00;0.00;;;;;;;29.32;48.10;101091.72;5084572;28;20032;-61
2022/06/29 08:29:20;;;;;;;0.00;0.00;;;;;;;29.49;47.88;101087.28;5081523;28;20028;-59
2022/06/29 08:31:46;;;;;;;0.32;0.10;;;;;;;29.53;49.08;101079.53;5083886;28;20063;-61
2022/06/29 08:34:14;;;;;;;0.05;0.00;;;;;;;29.68;47.43;101076.78;5064223;28;20036;-61
2022/06/29 08:36:39;;;;;;;0.00;0.00;;;;;;;29.70;47.64;101077.84;5081151;28;20028;-63
2022/06/29 08:39:05;;;;;;;0.10;0.00;;;;;;;29.65;48.02;101078.53;5079279;28;20499;-57
2022/06/29 08:41:33;;;;;;;0.00;0.00;;;;;;;29.76;47.30;101075.97;5084824;28;20529;-58
2022/06/29 08:44:02;;;;;;;0.10;0.10;;;;;;;29.83;48.03;101063.75;5075640;28;20027;-61
2022/06/29 08:46:28;;;;;;;0.20;0.10;;;;;;;29.98;47.31;101062.50;5077026;28;20023;-55
2022/06/29 08:48:53;;;;;;;0.00;0.00;;;;;;;30.13;47.83;101076.41;5080845;28;20020;-57
2022/06/29 08:51:20;;;;;;;0.10;0.10;;;;;;;30.23;47.80;101070.28;5060522;28;20029;-63
2022/06/29 08:53:45;;;;;;;0.10;0.00;;;;;;;30.09;46.89;101068.25;5084625;28;20027;-62
2022/06/29 08:56:12;;;;;;;0.10;0.00;;;;;;;30.34;46.66;101074.50;5080889;28;20082;-63
2022/06/29 08:58:39;;;;;;;0.00;0.00;;;;;;;30.38;47.09;101077.84;5077926;28;20101;-61
2022/06/29 09:01:05;;;;;;;0.00;0.00;;;;;;;30.49;47.12;101073.22;5081228;28;20492;-62
2022/06/29 09:03:30;;;;;;;0.08;0.05;;;;;;;30.51;48.44;101076.28;5086032;28;20055;-60
2022/06/29 09:06:01;;;;;;;0.10;0.10;;;;;;;30.26;46.62;101063.75;5070476;28;20151;-62
2022/06/29 09:08:27;;;;;;;0.20;0.10;;;;;;;29.92;45.82;101058.09;5083061;28;20083;-59
2022/06/29 09:10:52;;;;;;;0.00;0.00;;;;;;;29.64;46.64;101053.97;5081082;28;20052;-60
2022/06/29 09:13:22;;;;;;;0.00;0.00;;;;;;;29.95;45.83;101051.56;5083500;28;20398;-61
2022/06/29 09:15:58;;;;;;;1.10;0.23;;;;;;;30.38;44.87;101058.38;5086004;28;20073;-63
2022/06/29 09:18:31;;;;;;;0.30;0.30;;;;;;;30.60;46.05;101059.50;5086845;28;20290;-64
2022/06/29 09:21:00;;;;;;;0.00;0.00;;;;;;;30.59;44.20;101055.19;5082475;28;20369;-59
2022/06/29 09:23:27;;;;;;;0.10;0.10;;;;;;;30.87;44.09;101047.28;5076266;28;20037;-62
2022/06/29 09:25:53;;;;;;;0.03;0.00;;;;;;;30.72;43.47;101049.31;5077716;28;20048;-61
2022/06/29 09:28:26;;;;;;;0.20;0.10;;;;;;;30.88;43.29;101046.00;5079247;28;20029;-61
2022/06/29 09:30:53;;;;;;;0.10;0.10;;;;;;;31.09;44.85;101053.13;5062157;28;20564;-60
2022/06/29 09:33:24;;;;;;;0.00;0.00;;;;;;;31.05;43.68;101042.19;5078058;28;20059;-58
2022/06/29 09:36:09;;;;;;;0.05;0.05;;;;;;;30.98;43.83;101047.41;5073151;28;20040;-63
2022/06/29 09:38:35;;;;;;;0.00;0.00;;;;;;;30.82;44.17;101045.13;5073578;28;20119;-60
2022/06/29 09:41:14;;;;;;;0.10;0.10;;;;;;;30.46;45.37;101048.41;5080939;28;20032;-60
2022/06/29 09:43:44;;;;;;;0.00;0.00;;;;;;;30.48;45.66;101045.91;5080212;28;20033;-62
2022/06/29 09:46:12;;;;;;;0.13;0.10;;;;;;;30.14;44.61;101039.00;5061687;28;20036;-55
2022/06/29 09:48:39;;;;;;;0.00;0.00;;;;;;;29.88;45.21;101038.81;5084878;28;20082;-54
2022/06/29 09:54:00;;;;;;;0.25;0.25;;;;;;;30.46;44.76;101040.06;5059169;28;20075;-57
2022/06/29 09:56:29;;;;;;;0.10;0.10;;;;;;;30.65;44.00;101033.00;5073485;28;20043;-58
2022/06/29 09:59:00;;;;;;;0.10;0.10;;;;;;;30.94;44.98;101035.72;5082918;28;20024;-62
2022/06/29 10:04:12;;;;;;;0.08;0.08;;;;;;;31.09;43.85;101028.06;5085530;28;20033;-56
2022/06/29 10:06:38;;;;;;;0.30;0.30;;;;;;;31.11;43.41;101029.13;5080951;28;20044;-62
2022/06/29 10:09:04;;;;;;;0.00;0.00;;;;;;;30.77;43.97;101023.56;5082027;28;20016;-61
2022/06/29 10:14:50;;;;;;;0.10;0.10;;;;;;;30.90;44.35;101026.81;5076638;28;20115;-60
2022/06/29 10:17:34;;;;;;;0.00;0.00;;;;;;;31.19;43.90;101026.69;5076368;28;20036;-58
2022/06/29 10:20:33;;;;;;;0.00;0.00;;;;;;;31.28;43.30;101029.31;5085644;28;20043;-61
2022/06/29 10:22:59;;;;;;;0.20;0.20;;;;;;;31.03;44.06;101024.44;5085771;28;20040;-61
2022/06/29 10:25:27;;;;;;;0.03;0.00;;;;;;;30.79;43.96;101019.06;5087456;28;20039;-61
2022/06/29 10:28:20;;;;;;;0.20;0.10;;;;;;;30.52;44.68;101015.88;5084477;28;20110;-58
2022/06/29 10:30:46;;;;;;;0.22;0.10;;;;;;;30.87;45.18;101022.22;5061733;28;20036;-58
2022/06/29 10:33:31;;;;;;;0.20;0.20;;;;;;;30.98;43.96;101014.78;5071049;28;20782;-56
2022/06/29 10:36:06;;;;;;;0.10;0.10;;;;;;;31.09;43.76;101016.94;5080562;28;20042;-58
2022/06/29 10:38:57;;;;;;;0.17;0.10;;;;;;;31.09;43.79;101016.94;5087868;28;20040;-61
2022/06/29 10:44:59;;;;;;;0.10;0.10;;;;;;;31.13;43.19;101000.78;5035240;28;20043;-61
2022/06/29 10:47:25;;;;;;;0.10;0.10;;;;;;;31.02;45.97;101000.66;5077259;28;20052;-66
2022/06/29 10:50:16;;;;;;;0.10;0.10;;;;;;;30.05;45.96;101005.75;5076381;28;20702;-66
2022/06/29 10:52:46;;;;;;;0.00;0.00;;;;;;;29.95;46.58;101004.31;5083698;28;20073;-65
2022/06/29 10:55:12;;;;;;;0.57;0.55;;;;;;;31.29;42.83;101002.22;5082683;28;20036;-66
2022/06/29 10:57:39;;;;;;;1.50;0.80;;;;;;;31.63;40.88;100998.59;5083710;28;20038;-64
2022/06/29 11:00:09;;;;;;;0.75;0.57;;;;;;;32.83;40.42;101008.38;5083729;28;20036;-65
2022/06/29 11:02:38;;;;;;;0.20;0.20;;;;;;;34.21;37.11;101000.38;5084223;28;20059;-65
2022/06/29 11:05:04;;;;;;;0.17;0.17;;;;;;;34.13;37.88;101004.19;5085841;28;20063;-65
2022/06/29 11:12:58;;;;;;;0.00;0.00;;;;;;;33.90;35.45;100991.47;5083840;28;20031;-66
2022/06/29 11:15:41;;;;;;;2.95;0.80;;;;;;;34.71;36.50;101003.09;5078946;28;20106;-65
2022/06/29 11:18:10;;;;;;;0.00;0.00;;;;;;;34.78;35.04;100991.38;5075634;28;20036;-65
2022/06/29 11:20:37;;;;;;;0.00;0.00;;;;;;;33.68;37.92;100976.19;5078631;28;20024;-66
2022/06/29 11:23:02;;;;;;;0.00;0.00;;;;;;;32.91;38.83;100975.94;5082979;28;20032;-68
2022/06/29 11:25:35;;;;;;;0.08;0.08;;;;;;;32.49;38.00;100984.38;5076490;28;20032;-68
2022/06/29 11:28:01;;;;;;;0.10;0.10;;;;;;;33.46;39.70;100987.34;5084427;28;20026;-65
2022/06/29 11:30:27;;;;;;;0.00;0.00;;;;;;;34.26;35.64;100987.66;5082387;28;20032;-63
2022/06/29 11:32:52;;;;;;;0.10;0.10;;;;;;;34.85;34.69;100979.63;5079362;28;20024;-66
2022/06/29 11:35:23;;;;;;;0.00;0.00;;;;;;;35.66;34.29;100978.22;5080985;28;20579;-63
2022/06/29 11:37:50;;;;;;;0.05;0.05;;;;;;;35.50;34.03;100974.25;5077461;28;20041;-71
2022/06/29 11:40:41;;;;;;;0.00;0.00;;;;;;;35.98;33.31;100976.44;5082369;28;20036;-65
2022/06/29 11:43:17;;;;;;;0.30;0.30;;;;;;;36.23;33.10;100969.59;5073959;28;20434;-65
2022/06/29 11:45:47;;;;;;;0.10;0.10;;;;;;;35.00;34.57;100971.69;5081682;28;20028;-64
2022/06/29 11:48:13;;;;;;;;;;;;;;;33.94;34.38;100969.59;5075843;28;20052;-67
2022/06/29 11:50:53;;;;;;;0.10;0.10;;;;;;;33.46;35.59;100964.97;5062644;28;20009;-64
2022/06/29 11:53:40;;;;;;;0.20;0.20;;;;;;;34.63;35.50;100971.31;5080258;28;20051;-64